createdAt,value
2023-10-29T00:01:40.412Z,2.60
2023-10-29T00:04:09.039Z,2.50
2023-10-29T00:06:39.154Z,2.80
2023-10-29T00:09:07.851Z,2.40
2023-10-29T00:11:37.908Z,2.60
2023-10-29T00:14:08.912Z,2.70
2023-10-29T00:16:40.147Z,2.40
2023-10-29T00:19:08.119Z,2.60
2023-10-29T00:21:40.189Z,2.40
2023-10-29T00:24:09.185Z,2.60
2023-10-29T00:26:43.009Z,2.30
2023-10-29T00:29:10.752Z,2.50
2023-10-29T00:31:46.613Z,2.50
2023-10-29T00:34:18.202Z,2.50
2023-10-29T00:36:46.233Z,2.50
2023-10-29T00:39:17.373Z,2.70
2023-10-29T00:41:49.093Z,2.50
2023-10-29T00:44:18.230Z,2.50
2023-10-29T00:46:46.139Z,2.60
2023-10-29T00:49:15.804Z,2.20
2023-10-29T00:51:45.832Z,2.50
2023-10-29T00:54:14.016Z,2.30
2023-10-29T00:56:42.094Z,2.50
2023-10-29T00:59:13.457Z,2.50
2023-10-29T01:01:41.503Z,2.40
2023-10-29T01:04:10.123Z,2.30
2023-10-29T01:06:42.275Z,2.40
2023-10-29T01:09:14.485Z,2.60
2023-10-29T01:11:42.620Z,2.30
2023-10-29T01:14:15.016Z,2.50
2023-10-29T01:16:43.875Z,2.40
2023-10-29T01:19:12.415Z,2.40
2023-10-29T01:21:40.728Z,2.60
2023-10-29T01:24:10.154Z,2.90
2023-10-29T01:26:38.132Z,2.50
2023-10-29T01:29:06.382Z,2.60
2023-10-29T01:31:34.347Z,2.40
2023-10-29T01:34:02.256Z,2.70
2023-10-29T01:36:36.035Z,4.00
2023-10-29T01:39:06.047Z,4.50
2023-10-29T01:41:36.624Z,5.20
2023-10-29T01:44:05.561Z,4.40
2023-10-29T01:46:36.395Z,4.30
2023-10-29T01:49:10.811Z,4.00
2023-10-29T01:51:41.521Z,3.40
2023-10-29T01:54:09.420Z,2.90
2023-10-29T01:56:40.393Z,3.00
2023-10-29T01:59:08.224Z,3.00
2023-10-29T02:01:36.341Z,2.90
2023-10-29T02:04:14.195Z,2.90
2023-10-29T02:06:42.189Z,3.20
2023-10-29T02:09:12.894Z,2.80
2023-10-29T02:11:43.192Z,2.90
2023-10-29T02:14:11.901Z,2.80
2023-10-29T02:16:39.898Z,2.50
2023-10-29T02:19:08.784Z,2.80
2023-10-29T02:21:39.148Z,3.10
2023-10-29T02:24:11.378Z,3.20
2023-10-29T02:26:39.373Z,3.70
2023-10-29T02:29:07.217Z,6.70
2023-10-29T02:31:41.593Z,3.80
2023-10-29T02:34:09.541Z,3.20
2023-10-29T02:36:40.034Z,2.70
2023-10-29T02:39:10.160Z,2.90
2023-10-29T02:41:38.364Z,2.80
2023-10-29T02:44:15.410Z,2.70
2023-10-29T02:46:43.379Z,2.90
2023-10-29T02:49:13.730Z,4.90
2023-10-29T02:51:41.677Z,3.80
2023-10-29T02:54:13.264Z,4.20
2023-10-29T02:56:42.185Z,3.90
2023-10-29T02:59:11.323Z,3.70
2023-10-29T03:01:39.221Z,3.60
2023-10-29T03:04:07.954Z,3.10
2023-10-29T03:06:40.808Z,3.70
2023-10-29T03:09:13.358Z,3.70
2023-10-29T03:11:41.889Z,3.80
2023-10-29T03:14:10.015Z,2.80
2023-10-29T03:16:44.735Z,2.70
2023-10-29T03:19:15.794Z,3.00
2023-10-29T03:21:44.368Z,2.70
2023-10-29T03:24:17.444Z,3.20
2023-10-29T03:26:46.129Z,2.60
2023-10-29T03:29:14.300Z,2.80
2023-10-29T03:31:42.750Z,2.70
2023-10-29T03:34:12.824Z,2.90
2023-10-29T03:36:43.750Z,3.20
2023-10-29T03:39:11.656Z,3.60
2023-10-29T03:41:39.503Z,3.40
2023-10-29T03:44:08.429Z,4.40
2023-10-29T03:46:38.602Z,4.40
2023-10-29T03:49:17.110Z,4.80
2023-10-29T03:51:49.894Z,4.80
2023-10-29T03:54:17.782Z,5.10
2023-10-29T03:56:45.780Z,4.50
2023-10-29T03:59:13.800Z,5.00
2023-10-29T04:01:41.699Z,4.30
2023-10-29T04:04:12.884Z,4.60
2023-10-29T04:06:43.974Z,4.30
2023-10-29T04:09:11.927Z,4.00
2023-10-29T04:11:40.360Z,4.00
2023-10-29T04:14:08.690Z,4.10
2023-10-29T04:16:42.183Z,4.50
2023-10-29T04:19:16.948Z,4.00
2023-10-29T04:21:47.753Z,4.10
2023-10-29T04:24:15.674Z,4.80
2023-10-29T04:26:56.684Z,4.90
2023-10-29T04:29:27.151Z,5.30
2023-10-29T04:32:06.677Z,6.20
2023-10-29T04:34:40.887Z,5.80
2023-10-29T04:37:19.506Z,5.00
2023-10-29T04:39:52.604Z,4.60
2023-10-29T04:44:49.404Z,4.30
2023-10-29T04:47:18.474Z,5.40
2023-10-29T04:49:46.417Z,5.50
2023-10-29T04:52:14.723Z,4.80
2023-10-29T04:54:52.078Z,4.30
2023-10-29T04:57:23.029Z,4.10
2023-10-29T05:00:01.398Z,4.30
2023-10-29T05:02:33.099Z,4.10
2023-10-29T05:05:01.270Z,4.30
2023-10-29T05:07:36.720Z,4.20
2023-10-29T05:10:06.307Z,4.50
2023-10-29T05:12:35.317Z,4.00
2023-10-29T05:15:03.726Z,4.00
2023-10-29T05:17:31.865Z,4.00
2023-10-29T05:19:59.844Z,4.40
2023-10-29T05:22:27.617Z,4.50
2023-10-29T05:25:03.164Z,4.50
2023-10-29T05:27:31.437Z,4.60
2023-10-29T05:30:01.788Z,4.60
2023-10-29T05:32:34.793Z,4.50
2023-10-29T05:35:06.272Z,5.10
2023-10-29T05:37:39.413Z,4.70
2023-10-29T05:42:36.179Z,4.50
2023-10-29T05:45:08.354Z,3.90
2023-10-29T05:47:38.984Z,4.20
2023-10-29T05:50:10.143Z,4.20
2023-10-29T05:52:38.269Z,4.10
2023-10-29T05:57:38.317Z,4.10
2023-10-29T06:00:07.343Z,4.10
2023-10-29T06:02:40.913Z,4.00
2023-10-29T06:05:09.668Z,4.00
2023-10-29T06:07:39.111Z,4.30
2023-10-29T06:10:09.272Z,5.10
2023-10-29T06:12:37.185Z,7.30
2023-10-29T06:15:06.350Z,7.50
2023-10-29T06:17:35.690Z,4.80
2023-10-29T06:20:06.317Z,4.00
2023-10-29T06:22:34.390Z,4.30
2023-10-29T06:25:06.264Z,4.20
2023-10-29T06:27:34.320Z,4.10
2023-10-29T06:30:02.809Z,3.10
2023-10-29T06:32:31.064Z,4.00
2023-10-29T06:34:59.568Z,4.10
2023-10-29T06:37:27.478Z,3.60
2023-10-29T06:39:57.051Z,3.40
2023-10-29T06:42:24.908Z,3.60
2023-10-29T06:44:58.879Z,3.30
2023-10-29T06:47:27.126Z,3.40
2023-10-29T06:49:58.251Z,3.70
2023-10-29T06:52:26.125Z,3.40
2023-10-29T06:54:55.000Z,3.50
2023-10-29T06:57:23.513Z,3.20
2023-10-29T06:59:52.093Z,3.10
2023-10-29T07:02:20.299Z,3.20
2023-10-29T07:04:48.282Z,2.80
2023-10-29T07:07:18.276Z,2.90
2023-10-29T07:09:49.812Z,3.00
2023-10-29T07:12:36.492Z,2.80
2023-10-29T07:15:05.597Z,2.80
2023-10-29T07:17:36.593Z,2.70
2023-10-29T07:20:15.683Z,2.70
2023-10-29T07:23:12.555Z,2.90
2023-10-29T07:25:46.900Z,2.90
2023-10-29T07:28:20.634Z,2.90
2023-10-29T07:30:50.237Z,3.10
2023-10-29T07:33:18.373Z,2.70
2023-10-29T07:35:46.821Z,2.60
2023-10-29T07:38:16.921Z,2.70
2023-10-29T07:40:53.009Z,2.70
2023-10-29T07:43:26.886Z,2.80
2023-10-29T07:45:57.470Z,2.80
2023-10-29T07:48:34.797Z,2.60
2023-10-29T07:51:06.096Z,2.60
2023-10-29T07:53:47.301Z,2.40
2023-10-29T07:56:22.189Z,2.50
2023-10-29T07:59:06.077Z,2.60
2023-10-29T08:01:34.182Z,2.20
2023-10-29T08:04:02.912Z,2.10
2023-10-29T08:06:36.376Z,2.10
2023-10-29T08:09:04.265Z,2.10
2023-10-29T08:11:32.638Z,2.20
2023-10-29T08:14:04.168Z,2.10
2023-10-29T08:16:39.310Z,2.00
2023-10-29T08:19:07.932Z,1.80
2023-10-29T08:21:38.633Z,1.80
2023-10-29T08:24:08.983Z,1.80
2023-10-29T08:26:37.609Z,1.90
2023-10-29T08:29:05.608Z,2.10
2023-10-29T08:31:37.843Z,2.00
2023-10-29T08:34:08.113Z,2.10
2023-10-29T08:36:36.384Z,2.10
2023-10-29T08:39:04.932Z,1.90
2023-10-29T08:41:33.450Z,2.00
2023-10-29T08:44:01.425Z,1.90
2023-10-29T08:46:30.214Z,1.90
2023-10-29T08:48:58.696Z,1.80
2023-10-29T08:51:26.761Z,1.70
2023-10-29T08:53:58.952Z,1.90
2023-10-29T08:56:26.896Z,2.30
2023-10-29T08:58:54.765Z,2.10
2023-10-29T09:01:24.225Z,1.90
2023-10-29T09:04:14.058Z,2.00
2023-10-29T09:06:42.840Z,2.00
2023-10-29T09:09:14.510Z,1.70
2023-10-29T09:11:56.118Z,2.00
2023-10-29T09:14:29.407Z,2.10
2023-10-29T09:16:59.648Z,1.60
2023-10-29T09:19:29.301Z,1.70
2023-10-29T09:21:57.506Z,1.90
2023-10-29T09:24:26.871Z,1.70
2023-10-29T09:27:02.379Z,1.80
2023-10-29T09:29:32.783Z,1.80
2023-10-29T09:32:05.447Z,1.80
2023-10-29T09:34:34.436Z,1.80
2023-10-29T09:37:02.180Z,1.70
2023-10-29T09:39:30.046Z,1.70
2023-10-29T09:42:23.243Z,1.70
2023-10-29T09:44:51.530Z,1.50
2023-10-29T09:47:25.389Z,1.70
2023-10-29T09:49:53.300Z,1.70
2023-10-29T09:52:32.000Z,1.50
2023-10-29T09:55:00.133Z,1.80
2023-10-29T09:57:28.641Z,1.70
2023-10-29T10:00:08.664Z,1.80
2023-10-29T10:03:08.923Z,2.10
2023-10-29T10:05:37.404Z,2.10
2023-10-29T10:08:11.059Z,1.80
2023-10-29T10:10:39.878Z,1.70
2023-10-29T10:13:08.374Z,2.00
2023-10-29T10:15:37.063Z,2.00
2023-10-29T10:18:06.173Z,1.70
2023-10-29T10:20:37.606Z,1.70
2023-10-29T10:23:09.712Z,1.60
2023-10-29T10:25:47.825Z,1.80
2023-10-29T10:28:21.843Z,1.60
2023-10-29T10:31:24.683Z,1.80
2023-10-29T10:33:53.165Z,1.60
2023-10-29T10:36:50.626Z,2.50
2023-10-29T10:39:22.733Z,1.60
2023-10-29T10:41:59.158Z,1.50
2023-10-29T10:44:33.414Z,1.90
2023-10-29T10:47:01.703Z,2.10
2023-10-29T10:49:33.252Z,2.60
2023-10-29T10:52:03.262Z,3.40
2023-10-29T10:54:34.610Z,1.90
2023-10-29T10:57:02.422Z,1.90
2023-10-29T10:59:30.393Z,2.10
2023-10-29T11:01:58.531Z,2.60
2023-10-29T11:04:28.169Z,2.10
2023-10-29T11:06:56.434Z,2.30
2023-10-29T11:09:25.201Z,1.80
2023-10-29T11:11:58.147Z,1.70
2023-10-29T11:14:27.183Z,1.60
2023-10-29T11:17:11.573Z,1.80
2023-10-29T11:19:48.821Z,1.50
2023-10-29T11:22:40.992Z,1.90
2023-10-29T11:25:10.241Z,1.60
2023-10-29T11:28:28.406Z,1.70
2023-10-29T11:31:19.000Z,1.70
2023-10-29T11:34:12.621Z,1.80
2023-10-29T11:36:44.546Z,1.90
2023-10-29T11:39:16.482Z,2.60
2023-10-29T11:41:49.888Z,2.70
2023-10-29T11:47:05.512Z,3.20
2023-10-29T11:49:43.007Z,2.40
2023-10-29T11:52:11.605Z,2.60
2023-10-29T11:54:42.831Z,2.50
2023-10-29T11:57:11.433Z,3.90
2023-10-29T11:59:56.345Z,4.20
2023-10-29T12:02:25.590Z,4.70
2023-10-29T12:05:04.517Z,3.40
2023-10-29T12:07:34.404Z,2.60
2023-10-29T12:10:08.177Z,5.20
2023-10-29T12:12:36.218Z,4.90
2023-10-29T12:15:08.877Z,7.50
2023-10-29T12:17:37.273Z,10.90
2023-10-29T12:20:05.568Z,10.00
2023-10-29T12:22:33.464Z,10.00
2023-10-29T12:25:04.394Z,10.40
2023-10-29T12:27:32.673Z,5.70
2023-10-29T12:30:00.490Z,3.60
2023-10-29T12:32:29.219Z,2.40
2023-10-29T12:34:58.479Z,2.30
2023-10-29T12:37:30.649Z,1.90
2023-10-29T12:40:01.862Z,2.20
2023-10-29T12:42:55.696Z,2.30
2023-10-29T12:45:28.355Z,2.30
2023-10-29T12:48:17.747Z,2.90
2023-10-29T12:50:51.553Z,2.60
2023-10-29T12:53:32.735Z,2.50
2023-10-29T12:56:01.323Z,2.40
2023-10-29T12:58:32.164Z,2.20
2023-10-29T13:01:01.680Z,2.20
2023-10-29T13:03:29.795Z,2.10
2023-10-29T13:05:57.766Z,2.10
2023-10-29T13:08:26.371Z,2.00
2023-10-29T13:10:54.833Z,1.90
2023-10-29T13:13:25.611Z,2.00
2023-10-29T13:15:53.445Z,2.10
2023-10-29T13:18:21.427Z,1.80
2023-10-29T13:21:03.461Z,2.00
2023-10-29T13:23:31.307Z,1.80
2023-10-29T13:25:58.988Z,2.20
2023-10-29T13:28:27.104Z,1.90
2023-10-29T13:30:57.316Z,2.00
2023-10-29T13:33:25.686Z,2.70
2023-10-29T13:35:53.623Z,2.10
2023-10-29T13:38:21.546Z,2.30
2023-10-29T13:40:52.708Z,3.20
2023-10-29T13:43:20.416Z,3.40
2023-10-29T13:46:02.660Z,3.70
2023-10-29T13:48:30.900Z,3.10
2023-10-29T13:51:08.369Z,3.40
2023-10-29T13:53:36.129Z,3.40
2023-10-29T13:56:08.754Z,3.30
2023-10-29T13:58:36.791Z,3.40
2023-10-29T14:01:04.837Z,3.30
2023-10-29T14:03:32.653Z,3.00
2023-10-29T14:06:00.543Z,2.80
2023-10-29T14:08:28.452Z,2.80
2023-10-29T14:10:56.345Z,2.70
2023-10-29T14:13:24.089Z,2.80
2023-10-29T14:16:04.796Z,2.50
2023-10-29T14:18:32.694Z,2.50
2023-10-29T14:21:00.902Z,2.70
2023-10-29T14:23:30.875Z,2.70
2023-10-29T14:25:58.789Z,2.70
2023-10-29T14:28:26.522Z,2.70
2023-10-29T14:30:54.368Z,2.50
2023-10-29T14:33:23.220Z,2.40
2023-10-29T14:35:57.839Z,2.50
2023-10-29T14:38:25.773Z,2.70
2023-10-29T14:40:54.882Z,2.60
2023-10-29T14:43:23.302Z,2.50
2023-10-29T14:45:52.518Z,2.40
2023-10-29T14:48:21.094Z,2.50
2023-10-29T14:50:49.524Z,2.50
2023-10-29T14:53:17.576Z,2.60
2023-10-29T14:55:48.590Z,2.40
2023-10-29T14:58:16.710Z,2.50
2023-10-29T15:00:45.235Z,2.50
2023-10-29T15:03:13.752Z,2.70
2023-10-29T15:05:42.474Z,2.50
2023-10-29T15:08:12.639Z,2.70
2023-10-29T15:10:40.662Z,2.80
2023-10-29T15:13:11.523Z,3.40
2023-10-29T15:15:42.518Z,33.50
2023-10-29T15:18:13.244Z,33.40
2023-10-29T15:20:54.547Z,10.70
2023-10-29T15:23:26.311Z,16.70
2023-10-29T15:25:58.873Z,26.00
2023-10-29T15:28:27.454Z,29.40
2023-10-29T15:30:55.460Z,25.60
2023-10-29T15:33:25.650Z,27.70
2023-10-29T15:36:06.199Z,24.40
2023-10-29T15:39:03.874Z,23.40
2023-10-29T15:41:35.217Z,23.20
2023-10-29T15:44:03.091Z,22.50
2023-10-29T15:46:36.936Z,22.70
2023-10-29T15:49:05.156Z,36.70
2023-10-29T15:51:38.521Z,42.50
2023-10-29T15:54:28.850Z,43.80
2023-10-29T15:56:59.024Z,47.20
2023-10-29T15:59:34.184Z,41.00
2023-10-29T16:02:02.732Z,36.70
2023-10-29T16:04:30.808Z,49.00
2023-10-29T16:06:59.161Z,46.90
2023-10-29T16:09:30.325Z,29.30
2023-10-29T16:12:17.375Z,31.20
2023-10-29T16:14:53.171Z,30.40
2023-10-29T16:17:21.157Z,29.00
2023-10-29T16:19:50.274Z,24.80
2023-10-29T16:22:24.093Z,26.60
2023-10-29T16:24:53.556Z,15.10
2023-10-29T16:27:21.538Z,13.40
2023-10-29T16:29:57.058Z,15.10
2023-10-29T16:32:28.507Z,25.00
2023-10-29T16:35:01.378Z,30.70
2023-10-29T16:37:35.136Z,22.70
2023-10-29T16:40:10.951Z,32.60
2023-10-29T16:42:40.400Z,30.70
2023-10-29T16:45:11.133Z,23.80
2023-10-29T16:47:50.230Z,24.50
2023-10-29T16:50:22.957Z,21.10
2023-10-29T16:55:24.186Z,30.10
2023-10-29T16:57:54.362Z,40.70
2023-10-29T17:00:23.412Z,50.70
2023-10-29T17:02:51.452Z,64.10
2023-10-29T17:05:24.750Z,58.00
2023-10-29T17:10:21.736Z,50.00
2023-10-29T17:12:56.372Z,46.30
2023-10-29T17:15:27.587Z,45.60
2023-10-29T17:17:55.729Z,53.70
2023-10-29T17:20:23.964Z,39.10
2023-10-29T17:22:57.577Z,31.70
2023-10-29T17:25:32.680Z,33.30
2023-10-29T17:28:02.797Z,34.30
2023-10-29T17:30:34.648Z,36.40
2023-10-29T17:33:04.820Z,30.60
2023-10-29T17:35:32.877Z,22.30
2023-10-29T17:38:03.104Z,17.30
2023-10-29T17:40:33.748Z,19.60
2023-10-29T17:43:10.884Z,20.70
2023-10-29T17:45:49.279Z,19.80
2023-10-29T17:48:17.301Z,40.00
2023-10-29T17:50:46.485Z,27.90
2023-10-29T17:53:15.374Z,22.90
2023-10-29T17:55:55.029Z,20.40
2023-10-29T17:58:25.056Z,21.30
2023-10-29T18:00:53.088Z,19.60
2023-10-29T18:03:24.165Z,24.00
2023-10-29T18:05:55.145Z,27.70
2023-10-29T18:08:31.831Z,18.10
2023-10-29T18:11:01.539Z,18.10
2023-10-29T18:15:17.355Z,18.50
2023-10-29T18:17:59.101Z,13.90
2023-10-29T18:20:27.899Z,19.50
2023-10-29T18:23:00.494Z,14.60
2023-10-29T18:25:34.691Z,14.90
2023-10-29T18:28:06.244Z,15.40
2023-10-29T18:30:35.671Z,14.20
2023-10-29T18:33:06.894Z,13.50
2023-10-29T18:35:41.444Z,20.70
2023-10-29T18:38:11.953Z,18.10
2023-10-29T18:40:41.251Z,15.10
2023-10-29T18:43:09.941Z,14.60
2023-10-29T18:45:43.240Z,12.90
2023-10-29T18:48:16.739Z,16.80
2023-10-29T18:50:46.248Z,23.30
2023-10-29T18:53:19.520Z,19.50
2023-10-29T18:55:47.685Z,15.80
2023-10-29T18:58:17.141Z,15.40
2023-10-29T19:00:46.689Z,15.10
2023-10-29T19:03:24.346Z,13.70
2023-10-29T19:05:53.029Z,14.00
2023-10-29T19:08:26.304Z,13.60
2023-10-29T19:10:54.889Z,13.40
2023-10-29T19:13:25.573Z,14.40
2023-10-29T19:16:01.202Z,13.30
2023-10-29T19:18:30.080Z,12.80
2023-10-29T19:21:03.408Z,13.70
2023-10-29T19:23:41.188Z,15.30
2023-10-29T19:26:14.453Z,21.10
2023-10-29T19:28:45.883Z,19.50
2023-10-29T19:33:45.736Z,15.90
2023-10-29T19:36:19.159Z,16.00
2023-10-29T19:38:54.825Z,14.90
2023-10-29T19:41:35.968Z,15.20
2023-10-29T19:44:04.086Z,13.10
2023-10-29T19:46:38.047Z,13.60
2023-10-29T19:49:14.206Z,13.90
2023-10-29T19:51:50.882Z,13.60
2023-10-29T19:54:19.479Z,13.50
2023-10-29T19:56:51.426Z,14.10
2023-10-29T19:59:21.960Z,14.20
2023-10-29T20:01:58.249Z,14.30
2023-10-29T20:04:28.298Z,13.60
2023-10-29T20:06:58.569Z,13.30
2023-10-29T20:09:33.022Z,14.70
2023-10-29T20:12:05.931Z,15.20
2023-10-29T20:14:37.872Z,15.60
2023-10-29T20:17:14.486Z,15.00
2023-10-29T20:19:49.198Z,15.70
2023-10-29T20:22:29.596Z,15.10
2023-10-29T20:25:01.562Z,15.60
2023-10-29T20:27:44.277Z,14.90
2023-10-29T20:30:21.837Z,15.90
2023-10-29T20:32:58.181Z,16.00
2023-10-29T20:35:35.132Z,15.50
2023-10-29T20:38:11.244Z,15.60
2023-10-29T20:40:54.825Z,16.30
2023-10-29T20:43:30.500Z,16.10
2023-10-29T20:46:00.017Z,17.10
2023-10-29T20:48:31.768Z,16.90
2023-10-29T20:51:00.198Z,18.30
2023-10-29T20:53:30.095Z,18.40
2023-10-29T20:55:58.206Z,18.90
2023-10-29T20:58:26.409Z,17.10
2023-10-29T21:00:57.335Z,17.20
2023-10-29T21:03:26.427Z,18.90
2023-10-29T21:06:01.357Z,18.00
2023-10-29T21:08:41.812Z,19.90
2023-10-29T21:11:18.595Z,22.30
2023-10-29T21:13:47.683Z,21.20
2023-10-29T21:16:17.111Z,21.40
2023-10-29T21:18:46.374Z,20.10
2023-10-29T21:21:19.616Z,20.50
2023-10-29T21:26:37.985Z,20.20
2023-10-29T21:29:06.222Z,19.50
2023-10-29T21:31:51.483Z,19.50
2023-10-29T21:34:30.220Z,19.70
2023-10-29T21:37:16.544Z,19.80
2023-10-29T21:39:50.796Z,19.70
2023-10-29T21:42:24.714Z,19.80
2023-10-29T21:44:58.606Z,20.40
2023-10-29T21:47:28.042Z,20.20
2023-10-29T21:50:00.555Z,19.20
2023-10-29T21:52:34.384Z,18.70
2023-10-29T21:55:14.132Z,18.00
2023-10-29T21:57:51.172Z,18.50
2023-10-29T22:00:24.081Z,19.10
2023-10-29T22:02:52.294Z,19.60
2023-10-29T22:05:26.675Z,19.60
2023-10-29T22:07:55.542Z,19.60
2023-10-29T22:10:38.258Z,20.90
2023-10-29T22:13:17.633Z,19.30
2023-10-29T22:15:52.836Z,19.20
2023-10-29T22:18:23.637Z,19.90
2023-10-29T22:20:58.917Z,20.10
2023-10-29T22:23:32.721Z,20.00
2023-10-29T22:26:12.378Z,20.40
2023-10-29T22:28:40.920Z,20.50
2023-10-29T22:31:17.921Z,18.00
2023-10-29T22:33:49.384Z,19.10
2023-10-29T22:36:25.121Z,17.10
2023-10-29T22:41:30.500Z,18.70
2023-10-29T22:44:04.108Z,20.00
2023-10-29T22:46:32.833Z,18.10
2023-10-29T22:49:03.724Z,18.40
2023-10-29T22:51:36.857Z,19.70
